Time;durP1;ratioP1;P1;durP2;ratioP2;P2;SDS_P1;SDS_P2;PMS_P1;PMS_P2;Temp;Humidity;BMP_temperature;BMP_pressure;BME280_temperature;BME280_humidity;BME280_pressure;Samples;Min_cycle;Max_cycle;Signal;HPM_P1;HPM_P2
2022/10/31 00:02:16;;;;;;;9.20;4.10;;;;;;;17.54;56.31;97914.84;5035476;28;20746;-73
2022/10/31 00:04:41;;;;;;;8.27;4.20;;;;;;;17.49;56.55;97918.03;5006614;28;20213;-74
2022/10/31 00:07:06;;;;;;;9.67;3.90;;;;;;;17.45;56.72;97916.75;5039871;28;20275;-73
2022/10/31 00:09:32;;;;;;;10.70;3.93;;;;;;;17.47;57.11;97916.59;5044532;28;20333;-75
2022/10/31 00:11:57;;;;;;;6.10;3.90;;;;;;;17.48;56.81;97915.59;5033950;28;20288;-72
2022/10/31 00:14:23;;;;;;;13.53;3.83;;;;;;;17.49;56.62;97911.94;5050515;28;20235;-74
2022/10/31 00:16:48;;;;;;;8.47;4.00;;;;;;;17.47;56.48;97917.41;5036514;28;20266;-73
2022/10/31 00:19:14;;;;;;;9.80;4.80;;;;;;;17.39;56.74;97911.38;5040683;28;20187;-73
2022/10/31 00:21:39;;;;;;;8.43;3.67;;;;;;;17.37;56.80;97914.19;5043007;28;20528;-74
2022/10/31 00:24:05;;;;;;;6.77;3.93;;;;;;;17.38;56.78;97915.03;5043981;28;20263;-73
2022/10/31 00:26:31;;;;;;;9.53;4.73;;;;;;;17.38;56.99;97909.72;5041768;28;20206;-73
2022/10/31 00:28:57;;;;;;;11.10;4.23;;;;;;;17.36;57.24;97912.53;5047120;28;20199;-73
2022/10/31 00:31:23;;;;;;;13.40;4.50;;;;;;;17.31;57.19;97921.00;5042798;28;20904;-73
2022/10/31 00:33:48;;;;;;;23.37;4.70;;;;;;;17.27;57.66;97911.75;5041816;28;20465;-74
2022/10/31 00:36:16;;;;;;;8.77;4.20;;;;;;;17.32;57.28;97911.25;5050821;28;20198;-74
2022/10/31 00:38:42;;;;;;;7.90;4.07;;;;;;;17.36;57.22;97912.53;5041424;28;20245;-74
2022/10/31 00:41:08;;;;;;;11.23;3.87;;;;;;;17.32;57.23;97921.84;5046239;28;20430;-73
2022/10/31 00:43:33;;;;;;;8.23;4.10;;;;;;;17.28;57.14;97909.97;5043449;28;20448;-73
2022/10/31 00:45:59;;;;;;;5.70;4.03;;;;;;;17.29;57.07;97920.34;5053455;28;20202;-72
2022/10/31 00:48:24;;;;;;;6.17;3.67;;;;;;;17.28;57.03;97921.34;5041580;28;20190;-73
2022/10/31 00:50:49;;;;;;;5.70;3.40;;;;;;;17.33;56.53;97916.38;5041830;28;20675;-74
2022/10/31 00:53:15;;;;;;;8.50;3.77;;;;;;;17.33;56.21;97915.53;5042926;28;20199;-75
2022/10/31 00:55:40;;;;;;;5.03;3.60;;;;;;;17.33;56.55;97915.53;5035745;28;20214;-73
2022/10/31 00:58:06;;;;;;;8.63;3.60;;;;;;;17.33;56.17;97913.72;5035694;28;20242;-74
2022/10/31 01:00:31;;;;;;;9.37;3.17;;;;;;;17.33;56.01;97919.00;5045618;28;20955;-73
2022/10/31 01:02:57;;;;;;;7.17;3.50;;;;;;;17.25;56.02;97913.78;5041228;28;20179;-72
2022/10/31 01:05:22;;;;;;;10.00;3.93;;;;;;;17.18;56.46;97918.97;5041233;28;20199;-73
2022/10/31 01:07:48;;;;;;;8.50;3.43;;;;;;;17.11;56.52;97917.22;5043679;28;20716;-73
2022/10/31 01:10:13;;;;;;;10.97;4.00;;;;;;;17.07;56.84;97914.09;5042494;28;20232;-72
2022/10/31 01:12:40;;;;;;;6.07;3.67;;;;;;;17.08;57.14;97913.06;5048404;28;20210;-71
2022/10/31 01:15:07;;;;;;;8.93;3.70;;;;;;;17.07;56.88;97915.91;5037341;28;20682;-72
2022/10/31 01:17:32;;;;;;;9.83;4.07;;;;;;;17.01;57.01;97914.78;5043067;28;20881;-71
2022/10/31 01:19:58;;;;;;;5.20;3.67;;;;;;;17.01;57.69;97909.50;5047147;28;20516;-73
2022/10/31 01:22:23;;;;;;;6.80;3.50;;;;;;;16.98;57.32;97915.97;5040223;28;20562;-72
2022/10/31 01:24:49;;;;;;;13.90;3.80;;;;;;;16.95;57.46;97908.38;5045882;28;20203;-72
2022/10/31 01:27:14;;;;;;;6.20;3.80;;;;;;;16.97;57.01;97901.09;5037485;28;20203;-72
2022/10/31 01:29:40;;;;;;;6.70;3.70;;;;;;;16.93;57.16;97912.16;5046220;28;20303;-72
2022/10/31 01:32:05;;;;;;;10.13;3.70;;;;;;;16.86;57.24;97910.22;5051453;28;20212;-73
2022/10/31 01:34:30;;;;;;;11.93;3.83;;;;;;;16.83;57.69;97907.09;5039284;28;20642;-73
2022/10/31 01:36:56;;;;;;;7.47;3.80;;;;;;;16.85;57.67;97905.09;5054426;28;20187;-73
2022/10/31 01:39:22;;;;;;;8.20;4.27;;;;;;;16.83;57.84;97907.09;5043790;28;20176;-72
2022/10/31 01:41:49;;;;;;;11.60;4.30;;;;;;;16.73;57.83;97908.16;5051614;28;20530;-71
2022/10/31 01:44:15;;;;;;;10.20;4.33;;;;;;;16.72;57.98;97909.16;5053015;28;20210;-71
2022/10/31 01:46:41;;;;;;;8.67;3.87;;;;;;;16.73;58.13;97908.16;5049633;28;20851;-71
2022/10/31 01:49:17;;;;;;;6.50;3.97;;;;;;;16.71;58.30;97909.31;5047052;28;20179;-71
2022/10/31 01:51:50;;;;;;;6.87;3.47;;;;;;;16.61;58.13;97896.31;5044498;28;20461;-73
2022/10/31 01:54:19;;;;;;;10.80;3.77;;;;;;;16.56;58.50;97896.84;5043102;28;20441;-72
2022/10/31 01:56:48;;;;;;;8.57;4.00;;;;;;;16.62;58.30;97889.19;5043529;28;20441;-70
2022/10/31 01:59:17;;;;;;;5.13;3.43;;;;;;;16.63;57.77;97891.69;5048703;28;20421;-72
2022/10/31 02:01:42;;;;;;;8.13;3.60;;;;;;;16.56;57.88;97898.66;5046556;28;20465;-72
2022/10/31 02:04:08;;;;;;;7.80;3.60;;;;;;;16.42;58.32;97895.75;5049530;28;20425;-71
2022/10/31 02:06:47;;;;;;;13.07;4.13;;;;;;;16.39;58.50;97901.38;5048189;28;20733;-71
2022/10/31 02:09:13;;;;;;;9.90;4.00;;;;;;;16.34;58.49;97898.44;5048017;28;20183;-72
2022/10/31 02:11:38;;;;;;;4.63;3.50;;;;;;;16.40;58.82;97895.06;5051573;28;20477;-71
2022/10/31 02:14:04;;;;;;;9.87;4.27;;;;;;;16.43;58.84;97892.09;5049103;28;20191;-72
2022/10/31 02:16:29;;;;;;;5.07;3.80;;;;;;;16.48;59.04;97893.41;5048622;28;20762;-70
2022/10/31 02:18:55;;;;;;;8.37;4.13;;;;;;;16.52;58.92;97894.69;5052318;28;20179;-72
2022/10/31 02:21:38;;;;;;;7.50;3.63;;;;;;;16.56;58.83;97893.34;5052285;28;20186;-70
2022/10/31 02:24:24;;;;;;;8.67;4.23;;;;;;;16.57;58.81;97897.66;5051373;28;20434;-72
2022/10/31 02:26:49;;;;;;;7.23;3.40;;;;;;;16.60;58.17;97897.31;5046222;28;20426;-72
2022/10/31 02:29:43;;;;;;;10.23;4.37;;;;;;;16.58;58.09;97892.19;5052174;28;20437;-72
2022/10/31 02:32:25;;;;;;;7.97;3.80;;;;;;;16.57;58.22;97892.38;5051403;28;20207;-72
2022/10/31 02:35:03;;;;;;;6.90;3.40;;;;;;;16.56;58.38;97890.72;5047211;28;20461;-73
2022/10/31 02:37:46;;;;;;;10.63;3.53;;;;;;;16.54;58.33;97890.06;5051117;28;20525;-72
2022/10/31 02:40:31;;;;;;;6.10;3.87;;;;;;;16.55;58.17;97891.69;5050572;28;20426;-72
2022/10/31 02:43:07;;;;;;;4.77;3.67;;;;;;;16.53;57.78;97896.34;5049084;28;20406;-71
2022/10/31 02:45:47;;;;;;;5.60;3.63;;;;;;;16.47;57.94;97894.41;5043181;28;20441;-71
2022/10/31 02:48:19;;;;;;;4.67;3.30;;;;;;;16.42;57.96;97890.44;5049859;28;20436;-73
2022/10/31 02:50:56;;;;;;;5.47;3.70;;;;;;;16.31;58.26;97888.19;5052145;28;20951;-72
2022/10/31 02:53:22;;;;;;;14.37;3.70;;;;;;;16.26;58.55;97882.56;5048321;28;20774;-72
2022/10/31 02:56:09;;;;;;;11.37;3.97;;;;;;;16.24;58.52;97885.41;5052447;28;20456;-71
2022/10/31 02:58:38;;;;;;;6.30;3.40;;;;;;;16.24;58.50;97893.34;5051547;28;20737;-72
2022/10/31 03:01:31;;;;;;;10.47;3.77;;;;;;;16.25;58.53;97883.59;5050994;28;20505;-72
2022/10/31 03:04:21;;;;;;;8.93;3.80;;;;;;;16.13;58.36;97886.59;5049195;28;20884;-72
2022/10/31 03:07:15;;;;;;;7.93;3.67;;;;;;;16.03;58.96;97885.16;5053317;28;20417;-73
2022/10/31 03:09:46;;;;;;;6.57;3.77;;;;;;;16.05;58.64;97886.63;5052566;28;20478;-72
2022/10/31 03:12:37;;;;;;;8.00;3.57;;;;;;;16.06;58.71;97888.28;5053144;28;21119;-72
2022/10/31 03:15:27;;;;;;;4.90;3.43;;;;;;;15.99;58.93;97887.34;5055922;28;20457;-71
2022/10/31 03:17:58;;;;;;;5.53;3.30;;;;;;;16.03;58.67;97879.88;5039432;28;20426;-72
2022/10/31 03:20:32;;;;;;;6.60;3.87;;;;;;;15.98;58.57;97877.75;5050262;28;20729;-71
2022/10/31 03:22:59;;;;;;;7.77;3.80;;;;;;;16.04;58.86;97886.81;5050502;28;21050;-71
2022/10/31 03:25:25;;;;;;;7.43;3.60;;;;;;;16.02;58.78;97884.31;5050970;28;20437;-70
2022/10/31 03:27:51;;;;;;;8.63;3.63;;;;;;;16.00;58.49;97891.63;5049542;28;20421;-71
2022/10/31 03:30:17;;;;;;;8.00;3.90;;;;;;;15.98;58.58;97888.31;5056845;28;20817;-71
2022/10/31 03:32:48;;;;;;;5.57;3.70;;;;;;;15.92;58.94;97894.28;5049843;28;20214;-71
2022/10/31 03:35:15;;;;;;;10.20;4.20;;;;;;;15.95;59.04;97892.13;5049501;28;20464;-73
2022/10/31 03:37:41;;;;;;;7.97;3.83;;;;;;;16.03;59.13;97895.75;5046776;28;20480;-73
2022/10/31 03:40:09;;;;;;;8.13;3.10;;;;;;;16.03;58.71;97890.47;5047837;28;20479;-74
2022/10/31 03:42:37;;;;;;;11.10;4.23;;;;;;;15.92;59.10;97886.34;5053059;28;20425;-73
2022/10/31 03:45:15;;;;;;;7.60;3.90;;;;;;;15.95;58.89;97881.53;5050053;28;20464;-73
2022/10/31 03:47:42;;;;;;;7.97;3.67;;;;;;;15.82;59.08;97883.84;5047235;28;20433;-72
2022/10/31 03:50:08;;;;;;;12.87;4.00;;;;;;;15.89;58.84;97884.03;5049873;28;20422;-73
2022/10/31 03:53:01;;;;;;;10.43;3.77;;;;;;;15.89;59.02;97887.53;5049724;28;20453;-72
2022/10/31 03:55:32;;;;;;;7.80;4.17;;;;;;;15.85;58.84;97893.31;5052679;28;20527;-72
2022/10/31 03:58:00;;;;;;;8.37;4.50;;;;;;;15.86;58.84;97887.03;5050244;28;20908;-72
2022/10/31 04:00:26;;;;;;;11.10;3.73;;;;;;;15.76;58.72;97880.06;5050352;28;20433;-71
2022/10/31 04:03:13;;;;;;;6.33;3.67;;;;;;;15.75;58.79;97881.06;5049366;28;20417;-71
2022/10/31 04:05:40;;;;;;;8.20;3.60;;;;;;;15.75;58.82;97880.25;5053497;28;20206;-72
2022/10/31 04:08:09;;;;;;;6.13;3.70;;;;;;;15.74;58.98;97884.72;5051428;28;20421;-71
2022/10/31 04:10:37;;;;;;;6.23;3.37;;;;;;;15.74;58.89;97884.72;5050864;28;21005;-71
2022/10/31 04:13:08;;;;;;;12.63;3.63;;;;;;;15.71;58.88;97882.41;5048059;28;20544;-71
2022/10/31 04:15:35;;;;;;;9.83;3.77;;;;;;;15.72;58.87;97878.78;5043069;28;20442;-72
2022/10/31 04:18:01;;;;;;;9.33;3.53;;;;;;;15.75;58.79;97873.13;5045451;28;20418;-71
2022/10/31 04:20:40;;;;;;;8.50;3.83;;;;;;;15.75;58.80;97867.03;5048918;28;20421;-71
2022/10/31 04:23:16;;;;;;;6.43;3.70;;;;;;;15.71;58.64;97866.56;5032560;28;20551;-72
2022/10/31 04:25:41;;;;;;;20.67;4.43;;;;;;;15.70;58.62;97862.25;5050380;28;20445;-71
2022/10/31 04:28:07;;;;;;;10.37;4.00;;;;;;;15.66;58.76;97863.59;5049346;28;20457;-71
2022/10/31 04:30:32;;;;;;;6.63;3.53;;;;;;;15.66;58.77;97868.88;5050281;28;20210;-71
2022/10/31 04:32:57;;;;;;;5.30;3.60;;;;;;;15.66;58.87;97863.59;5050406;28;20294;-70
2022/10/31 04:35:23;;;;;;;12.10;4.20;;;;;;;15.59;58.92;97859.97;5046018;28;20250;-71
2022/10/31 04:37:48;;;;;;;9.93;4.37;;;;;;;15.62;59.05;97863.09;5053714;28;20202;-73
2022/10/31 04:40:14;;;;;;;15.23;4.20;;;;;;;15.55;59.16;97866.59;5059552;28;20261;-71
2022/10/31 04:42:39;;;;;;;8.10;3.90;;;;;;;15.55;59.06;97856.03;5050569;28;20693;-73
2022/10/31 04:45:05;;;;;;;8.23;3.80;;;;;;;15.57;58.87;97861.97;5040796;28;20199;-72
2022/10/31 04:47:33;;;;;;;7.70;3.83;;;;;;;15.54;59.10;97851.72;5049270;28;20186;-71
2022/10/31 04:49:58;;;;;;;7.33;4.00;;;;;;;15.56;58.98;97855.03;5031106;28;20534;-72
2022/10/31 04:52:23;;;;;;;5.10;3.53;;;;;;;15.55;59.12;97856.03;5053783;28;20471;-72
2022/10/31 04:54:49;;;;;;;15.40;3.90;;;;;;;15.52;59.02;97852.72;5058922;28;20578;-69
2022/10/31 04:57:14;;;;;;;7.53;3.80;;;;;;;15.49;59.02;97845.16;5057952;28;20225;-71
2022/10/31 04:59:40;;;;;;;15.53;4.37;;;;;;;15.51;59.24;97843.13;5059160;28;20187;-72
2022/10/31 05:02:05;;;;;;;8.23;3.87;;;;;;;15.52;59.16;97847.44;5064988;28;20202;-71
2022/10/31 05:04:30;;;;;;;13.33;4.30;;;;;;;15.45;59.21;97846.47;5064620;28;20247;-71
2022/10/31 05:06:56;;;;;;;6.60;4.00;;;;;;;15.36;59.51;97837.72;5060333;28;20265;-72
2022/10/31 05:09:21;;;;;;;12.77;4.20;;;;;;;15.36;59.52;97836.91;5066553;28;20605;-72
2022/10/31 05:11:47;;;;;;;7.97;4.60;;;;;;;15.39;59.34;97833.09;5061422;28;20663;-71
2022/10/31 05:14:12;;;;;;;9.83;3.67;;;;;;;15.38;59.57;97836.72;5061091;28;20206;-72
2022/10/31 05:16:38;;;;;;;5.80;4.30;;;;;;;15.35;59.19;97841.34;5063660;28;20177;-71
2022/10/31 05:19:03;;;;;;;8.73;4.23;;;;;;;15.39;59.37;97838.38;5059476;28;20176;-71
2022/10/31 05:21:28;;;;;;;8.80;3.97;;;;;;;15.34;59.28;97844.19;5057040;28;20253;-71
2022/10/31 05:23:54;;;;;;;6.13;4.10;;;;;;;15.38;59.12;97834.91;5060825;28;20262;-71
2022/10/31 05:26:19;;;;;;;12.10;4.70;;;;;;;15.39;59.27;97839.19;5063936;28;20749;-72
2022/10/31 05:28:45;;;;;;;6.87;4.23;;;;;;;15.39;59.44;97833.09;5071262;28;20685;-72
2022/10/31 05:31:10;;;;;;;9.10;4.43;;;;;;;15.38;59.38;97834.09;5064123;28;20209;-72
2022/10/31 05:33:36;;;;;;;9.53;4.20;;;;;;;15.37;59.50;97833.28;5058775;28;20257;-71
2022/10/31 05:36:01;;;;;;;13.20;4.20;;;;;;;15.38;59.68;97832.25;5062738;28;20286;-72
2022/10/31 05:38:26;;;;;;;14.33;4.93;;;;;;;15.26;60.43;97841.53;5055693;28;20668;-72
2022/10/31 05:40:57;;;;;;;9.17;4.47;;;;;;;15.35;59.97;97837.91;5061897;28;20252;-71
2022/10/31 05:43:23;;;;;;;10.70;3.90;;;;;;;15.37;59.48;97835.94;5057948;28;20203;-71
2022/10/31 05:45:52;;;;;;;8.63;5.00;;;;;;;15.26;59.36;97830.97;5070608;28;20874;-71
2022/10/31 05:48:17;;;;;;;10.03;4.73;;;;;;;15.23;59.77;97831.31;5063748;28;20581;-71
2022/10/31 05:50:43;;;;;;;7.40;4.00;;;;;;;15.23;59.23;97829.50;5063398;28;20508;-73
2022/10/31 05:53:08;;;;;;;9.20;5.00;;;;;;;15.16;59.71;97834.59;5064488;28;20636;-71
2022/10/31 05:55:34;;;;;;;10.03;4.43;;;;;;;15.20;59.78;97828.00;5063903;28;20337;-71
2022/10/31 05:57:59;;;;;;;16.37;4.27;;;;;;;15.20;59.61;97828.00;5066129;28;20182;-72
2022/10/31 06:00:25;;;;;;;9.70;5.27;;;;;;;15.01;60.20;97838.91;5055657;28;20581;-73
2022/10/31 06:02:58;;;;;;;15.50;4.30;;;;;;;15.07;60.26;97834.78;5065572;28;20183;-72
2022/10/31 06:05:24;;;;;;;8.73;4.00;;;;;;;15.14;60.11;97823.38;5063183;28;20964;-72
2022/10/31 06:07:49;;;;;;;6.73;3.87;;;;;;;15.11;60.25;97821.09;5068413;28;20417;-71
2022/10/31 06:10:15;;;;;;;10.37;4.80;;;;;;;15.12;60.30;97821.91;5065067;28;20796;-71
2022/10/31 06:12:41;;;;;;;11.73;4.60;;;;;;;15.15;60.18;97816.31;5050127;28;20740;-71
2022/10/31 06:15:07;;;;;;;10.87;4.53;;;;;;;15.00;60.96;97816.97;5064117;28;20430;-73
2022/10/31 06:17:34;;;;;;;6.83;4.10;;;;;;;15.01;60.63;97820.41;5062038;28;20178;-74
2022/10/31 06:19:59;;;;;;;8.40;5.00;;;;;;;15.08;60.35;97820.59;5060759;28;20442;-73
2022/10/31 06:22:25;;;;;;;10.47;5.20;;;;;;;15.09;60.02;97825.72;5060880;28;20861;-73
2022/10/31 06:24:50;;;;;;;11.60;5.17;;;;;;;15.09;60.07;97820.44;5069071;28;20688;-70
2022/10/31 06:27:15;;;;;;;10.13;4.90;;;;;;;15.11;59.92;97812.34;5061772;28;20223;-72
2022/10/31 06:29:41;;;;;;;11.03;4.77;;;;;;;15.11;59.87;97817.63;5063001;28;20218;-72
2022/10/31 06:32:10;;;;;;;12.50;4.07;;;;;;;15.08;59.81;97823.22;5059785;28;20198;-72
2022/10/31 06:34:35;;;;;;;12.80;4.97;;;;;;;15.07;60.11;97825.06;5069629;28;20222;-71
2022/10/31 06:37:00;;;;;;;9.03;4.90;;;;;;;15.10;59.88;97827.38;5061937;28;20520;-71
2022/10/31 06:39:26;;;;;;;9.43;5.10;;;;;;;15.12;59.74;97830.63;5056173;28;20206;-71
2022/10/31 06:41:51;;;;;;;8.90;5.00;;;;;;;15.08;59.90;97826.69;5065792;28;20204;-70
2022/10/31 06:44:17;;;;;;;8.23;4.80;;;;;;;15.17;59.70;97830.16;5063435;28;20274;-71
2022/10/31 06:46:42;;;;;;;10.23;4.87;;;;;;;15.18;59.69;97840.56;5048654;28;20182;-71
2022/10/31 06:49:08;;;;;;;19.13;10.27;;;;;;;15.29;60.28;97820.06;5046445;28;20269;-72
2022/10/31 06:51:33;;;;;;;20.63;10.37;;;;;;;15.41;60.77;97834.56;5052989;28;20195;-70
2022/10/31 06:53:59;;;;;;;15.23;8.17;;;;;;;15.48;61.07;97827.66;5049161;28;20273;-69
2022/10/31 06:56:24;;;;;;;14.03;5.60;;;;;;;15.47;61.06;97825.16;5041945;28;20201;-72
2022/10/31 06:58:50;;;;;;;8.63;5.17;;;;;;;15.56;60.98;97824.16;5063094;28;20269;-72
2022/10/31 07:01:15;;;;;;;9.47;4.50;;;;;;;15.47;60.67;97827.78;5063825;28;20198;-72
2022/10/31 07:03:40;;;;;;;7.83;5.00;;;;;;;15.47;61.11;97828.63;5068464;28;20186;-71
2022/10/31 07:06:06;;;;;;;10.90;6.50;;;;;;;15.58;61.32;97826.63;5065228;28;20607;-72
2022/10/31 07:08:31;;;;;;;13.10;6.40;;;;;;;15.71;61.58;97829.56;5048136;28;20179;-74
2022/10/31 07:10:57;;;;;;;11.17;5.63;;;;;;;15.74;60.95;97829.22;5036093;28;20202;-71
2022/10/31 07:13:26;;;;;;;11.43;6.37;;;;;;;15.86;60.97;97826.25;5037239;28;20182;-71
2022/10/31 07:16:02;;;;;;;11.47;5.80;;;;;;;15.88;60.48;97829.56;5036730;28;20841;-73
2022/10/31 07:18:27;;;;;;;12.20;5.17;;;;;;;16.01;60.79;97840.38;5031786;28;20410;-72
2022/10/31 07:20:53;;;;;;;9.30;5.50;;;;;;;16.10;60.64;97836.72;5033694;28;20413;-72
2022/10/31 07:23:18;;;;;;;12.30;6.00;;;;;;;16.19;60.47;97844.59;5034403;28;20206;-71
2022/10/31 07:25:44;;;;;;;9.43;6.00;;;;;;;16.19;60.35;97836.69;5040500;28;20239;-71
2022/10/31 07:28:10;;;;;;;8.20;5.60;;;;;;;16.22;60.10;97837.16;5041966;28;20333;-71
2022/10/31 07:30:35;;;;;;;9.03;6.33;;;;;;;16.28;59.98;97839.13;5041370;28;20183;-71
2022/10/31 07:33:01;;;;;;;10.13;5.70;;;;;;;16.27;59.87;97836.63;5033810;28;20207;-73
2022/10/31 07:35:28;;;;;;;8.57;5.03;;;;;;;16.16;59.35;97837.00;5037554;28;20241;-71
2022/10/31 07:37:54;;;;;;;14.00;5.50;;;;;;;16.00;60.12;97837.91;5041557;28;20654;-72
2022/10/31 07:40:20;;;;;;;16.13;5.37;;;;;;;15.99;60.26;97826.53;5056553;28;20473;-73
2022/10/31 07:42:48;;;;;;;12.03;5.50;;;;;;;16.10;60.17;97831.44;5053410;28;20506;-71
2022/10/31 07:45:16;;;;;;;19.13;5.70;;;;;;;16.23;59.94;97830.06;5055363;28;20490;-71
2022/10/31 07:47:43;;;;;;;11.80;5.20;;;;;;;16.29;59.67;97826.69;5054009;28;20426;-71
2022/10/31 07:50:10;;;;;;;10.00;5.70;;;;;;;16.38;59.93;97824.84;5053951;28;20939;-71
2022/10/31 07:52:36;;;;;;;9.33;5.13;;;;;;;16.53;59.83;97824.91;5058849;28;20547;-72
2022/10/31 07:55:02;;;;;;;11.63;4.90;;;;;;;16.65;59.47;97820.84;5048875;28;20588;-72
2022/10/31 07:57:27;;;;;;;15.40;5.70;;;;;;;16.60;58.70;97825.88;5064054;28;20220;-72
2022/10/31 07:59:53;;;;;;;9.77;5.50;;;;;;;16.66;59.18;97821.69;5049790;28;20184;-73
2022/10/31 08:02:18;;;;;;;7.30;5.47;;;;;;;16.65;58.77;97827.97;5064736;28;20238;-71
2022/10/31 08:04:43;;;;;;;11.13;5.77;;;;;;;16.73;59.30;97827.91;5053578;28;20678;-73
2022/10/31 08:07:09;;;;;;;12.20;5.87;;;;;;;16.84;59.50;97829.34;5061342;28;20634;-74
2022/10/31 08:09:34;;;;;;;12.73;5.20;;;;;;;16.95;59.49;97826.28;5059505;28;20266;-73
2022/10/31 08:12:01;;;;;;;10.57;6.13;;;;;;;17.10;59.29;97822.88;5055309;28;20257;-72
2022/10/31 08:14:26;;;;;;;22.17;6.27;;;;;;;17.32;58.78;97821.19;5056437;28;20277;-72
2022/10/31 08:16:53;;;;;;;11.43;5.53;;;;;;;17.45;58.65;97823.19;5048109;28;20501;-73
2022/10/31 08:19:18;;;;;;;14.60;6.00;;;;;;;17.41;58.84;97819.25;5062834;28;20179;-71
2022/10/31 08:21:43;;;;;;;11.03;5.83;;;;;;;17.61;58.64;97825.69;5060103;28;20907;-73
2022/10/31 08:24:09;;;;;;;14.57;6.07;;;;;;;17.62;57.48;97826.50;5059428;28;20270;-71
2022/10/31 08:26:34;;;;;;;13.33;5.67;;;;;;;17.78;58.36;97825.50;5035726;28;20182;-73
2022/10/31 08:29:00;;;;;;;9.37;6.40;;;;;;;17.76;58.22;97824.88;5038319;28;20270;-73
2022/10/31 08:31:27;;;;;;;12.47;6.80;;;;;;;17.73;58.83;97818.09;5060771;28;20700;-72
2022/10/31 08:33:52;;;;;;;11.83;6.43;;;;;;;18.00;58.07;97817.66;5056018;28;20198;-72
2022/10/31 08:36:18;;;;;;;9.73;6.57;;;;;;;18.11;57.83;97815.34;5063293;28;20486;-71
2022/10/31 08:38:44;;;;;;;11.83;8.07;;;;;;;18.22;56.62;97816.69;5054719;28;20243;-72
2022/10/31 08:41:09;;;;;;;16.10;7.80;;;;;;;18.32;56.95;97816.41;5043396;28;20419;-72
2022/10/31 08:43:35;;;;;;;29.73;8.60;;;;;;;18.32;56.18;97810.25;5040138;28;20273;-71
2022/10/31 08:46:00;;;;;;;15.17;7.83;;;;;;;18.36;56.57;97814.19;5053179;28;20286;-72
2022/10/31 08:48:26;;;;;;;16.23;7.80;;;;;;;18.57;56.46;97808.09;5045838;28;20182;-72
2022/10/31 08:50:51;;;;;;;15.17;7.30;;;;;;;18.64;56.15;97802.84;5065966;28;20232;-70
2022/10/31 08:53:18;;;;;;;14.77;7.10;;;;;;;18.72;56.26;97802.72;5049321;28;20268;-71
2022/10/31 08:55:45;;;;;;;12.60;6.70;;;;;;;18.80;56.30;97802.56;5058874;28;20209;-72
2022/10/31 08:58:14;;;;;;;12.27;6.90;;;;;;;18.94;55.79;97800.06;5050254;28;20433;-72
2022/10/31 09:00:39;;;;;;;19.93;7.53;;;;;;;18.91;55.58;97805.72;5047156;28;20424;-71
2022/10/31 09:03:08;;;;;;;15.47;6.90;;;;;;;19.00;55.49;97807.28;5055040;28;20414;-73
2022/10/31 09:05:34;;;;;;;19.47;7.37;;;;;;;18.98;55.39;97809.31;5044054;28;20202;-71
2022/10/31 09:08:01;;;;;;;12.20;5.90;;;;;;;19.07;54.67;97800.19;5061184;28;20447;-71
2022/10/31 09:10:28;;;;;;;12.10;6.20;;;;;;;19.08;55.03;97807.13;5050252;28;20179;-71
2022/10/31 09:13:01;;;;;;;14.50;6.03;;;;;;;19.06;55.55;97800.38;5058028;28;20867;-73
2022/10/31 09:15:28;;;;;;;11.77;6.30;;;;;;;19.11;55.50;97798.78;5045393;28;20450;-71
2022/10/31 09:17:53;;;;;;;13.23;6.03;;;;;;;19.17;55.70;97795.34;5049841;28;20428;-72
2022/10/31 09:20:19;;;;;;;13.00;6.30;;;;;;;19.09;55.58;97800.81;5052707;28;20975;-72
2022/10/31 09:22:45;;;;;;;14.97;6.50;;;;;;;19.20;55.25;97796.81;5049330;28;20564;-72
2022/10/31 09:25:10;;;;;;;20.27;6.43;;;;;;;19.14;55.21;97785.13;5059522;28;20434;-72
2022/10/31 09:27:36;;;;;;;10.00;5.57;;;;;;;19.19;54.94;97785.34;5037959;28;20244;-73
2022/10/31 09:30:02;;;;;;;13.77;6.60;;;;;;;19.28;55.01;97786.03;5050141;28;20226;-71
2022/10/31 09:32:27;;;;;;;9.40;5.60;;;;;;;19.27;54.97;97786.25;5060505;28;20198;-72
2022/10/31 09:34:53;;;;;;;9.83;5.50;;;;;;;19.31;54.58;97783.00;5055332;28;20549;-72
2022/10/31 09:37:19;;;;;;;9.50;6.20;;;;;;;19.36;54.51;97782.41;5053539;28;20207;-72
2022/10/31 09:39:44;;;;;;;22.93;16.27;;;;;;;19.53;54.30;97782.09;5054370;28;20186;-71
2022/10/31 09:42:31;;;;;;;22.33;15.10;;;;;;;19.64;53.70;97782.38;5045855;28;20254;-72
2022/10/31 09:44:59;;;;;;;29.33;10.37;;;;;;;19.80;53.71;97781.19;5058814;28;20202;-70
2022/10/31 09:47:40;;;;;;;22.93;11.60;;;;;;;19.79;53.54;97774.25;5050865;28;20405;-71
2022/10/31 09:50:17;;;;;;;15.90;8.47;;;;;;;19.88;53.44;97771.47;5061036;28;20476;-71
2022/10/31 09:53:13;;;;;;;16.30;12.00;;;;;;;20.03;53.60;97784.63;5052316;28;20814;-71
2022/10/31 09:55:42;;;;;;;16.00;9.53;;;;;;;20.14;53.53;97775.25;5043366;28;20756;-71
2022/10/31 09:58:28;;;;;;;31.30;21.70;;;;;;;20.26;53.77;97773.63;5051985;28;20797;-71
2022/10/31 10:00:57;;;;;;;39.20;25.93;;;;;;;20.39;52.98;97767.53;5048650;28;20570;-71
2022/10/31 10:03:28;;;;;;;14.60;8.73;;;;;;;20.42;52.86;97773.25;5056467;28;20422;-72
2022/10/31 10:05:59;;;;;;;13.73;5.27;;;;;;;20.52;52.38;97772.88;5051605;28;20428;-71
2022/10/31 10:08:27;;;;;;;18.30;6.93;;;;;;;20.58;52.55;97773.91;5061331;28;20968;-71
2022/10/31 10:11:05;;;;;;;12.70;5.53;;;;;;;20.67;51.76;97769.19;5022968;28;20817;-73
2022/10/31 10:13:49;;;;;;;11.03;6.20;;;;;;;20.48;50.96;97757.50;5049119;28;20429;-71
2022/10/31 10:16:22;;;;;;;13.53;6.00;;;;;;;20.60;51.39;97758.53;5046969;28;20462;-71
2022/10/31 10:19:18;;;;;;;14.43;6.20;;;;;;;20.65;51.95;97758.75;5058638;28;20432;-73
2022/10/31 10:22:26;;;;;;;12.90;6.10;;;;;;;20.70;50.75;97758.94;5053885;28;20443;-71
2022/10/31 10:25:12;;;;;;;22.23;8.03;;;;;;;20.65;51.36;97768.59;5050465;28;20610;-71
2022/10/31 10:28:00;;;;;;;14.60;8.60;;;;;;;20.66;51.53;97768.41;5063857;28;20428;-73
2022/10/31 10:30:52;;;;;;;13.80;8.10;;;;;;;20.83;51.62;97760.84;5066647;28;20983;-71
2022/10/31 10:33:23;;;;;;;14.03;9.20;;;;;;;20.96;52.17;97760.00;5070370;28;20457;-72
2022/10/31 10:35:54;;;;;;;16.70;10.60;;;;;;;20.88;51.52;97765.56;5067087;28;20437;-71
2022/10/31 10:38:26;;;;;;;18.60;8.30;;;;;;;20.92;50.65;97750.78;5061722;28;20429;-72
2022/10/31 10:40:52;;;;;;;61.67;47.70;;;;;;;20.97;50.89;97753.66;5060473;28;20413;-71
2022/10/31 10:43:31;;;;;;;129.67;96.60;;;;;;;21.08;51.65;97759.38;5062607;28;20418;-71
2022/10/31 10:49:08;;;;;;;43.47;32.20;;;;;;;21.16;51.13;97751.19;5056892;28;20443;-72
2022/10/31 10:51:50;;;;;;;74.37;46.17;;;;;;;21.22;51.68;97741.56;5047808;28;20537;-70
2022/10/31 10:54:37;;;;;;;54.00;38.37;;;;;;;21.30;52.16;97744.00;5064238;28;20966;-72
2022/10/31 10:57:28;;;;;;;35.10;26.30;;;;;;;21.37;52.21;97736.78;5064880;28;20456;-72
2022/10/31 10:59:53;;;;;;;34.93;24.40;;;;;;;21.39;52.30;97731.25;5061079;28;20913;-71
2022/10/31 11:02:25;;;;;;;19.23;9.07;;;;;;;21.38;51.60;97732.28;5069842;28;20538;-71
2022/10/31 11:05:30;;;;;;;11.20;6.70;;;;;;;21.33;51.68;97725.72;5064317;28;20199;-71
2022/10/31 11:07:55;;;;;;;13.73;7.30;;;;;;;21.36;51.85;97723.69;5066686;28;20790;-71
2022/10/31 11:10:21;;;;;;;15.07;6.93;;;;;;;21.35;51.97;97716.69;5060312;28;20430;-71
2022/10/31 11:13:05;;;;;;;18.37;7.23;;;;;;;21.33;51.88;97715.06;5063322;28;20206;-71
2022/10/31 11:15:35;;;;;;;17.53;7.13;;;;;;;21.43;51.47;97708.47;5059857;28;20214;-72
2022/10/31 11:18:01;;;;;;;11.10;6.50;;;;;;;21.63;51.67;97703.09;5060444;28;20409;-71
2022/10/31 11:20:35;;;;;;;15.00;6.60;;;;;;;21.84;51.29;97699.31;5061764;28;20793;-71
2022/10/31 11:23:14;;;;;;;18.67;6.70;;;;;;;22.04;50.13;97693.06;5066169;28;20447;-70
2022/10/31 11:25:48;;;;;;;14.97;7.60;;;;;;;22.20;49.72;97691.72;5061998;28;20434;-71
2022/10/31 11:28:13;;;;;;;23.57;7.43;;;;;;;22.35;49.41;97688.75;5061051;28;20515;-71
2022/10/31 11:30:45;;;;;;;14.63;6.40;;;;;;;22.50;49.44;97689.28;5064896;28;20499;-71
2022/10/31 11:33:17;;;;;;;13.53;6.50;;;;;;;22.62;48.78;97691.25;5068386;28;20206;-70
2022/10/31 11:35:43;;;;;;;12.03;6.40;;;;;;;22.69;48.86;97683.97;5065512;28;20544;-71
2022/10/31 11:38:15;;;;;;;16.47;7.90;;;;;;;22.76;48.49;97673.25;5062869;28;20428;-70
2022/10/31 11:40:51;;;;;;;24.23;8.30;;;;;;;22.74;48.59;97670.81;5051964;28;20181;-71
2022/10/31 11:43:17;;;;;;;16.20;9.17;;;;;;;22.85;48.95;97678.09;5030359;28;20411;-71